sensor_id;sensor_type;location;lat;lon;timestamp;temperature;humidity
51637;DHT22;37713;53.254;6.460;2023-08-31T00:00:42;11.10;99.90
51637;DHT22;37713;53.254;6.460;2023-08-31T00:03:08;11.10;99.90
51637;DHT22;37713;53.254;6.460;2023-08-31T00:05:43;11.10;99.90
51637;DHT22;37713;53.254;6.460;2023-08-31T00:08:09;11.10;99.90
51637;DHT22;37713;53.254;6.460;2023-08-31T00:10:35;11.10;99.90
51637;DHT22;37713;53.254;6.460;2023-08-31T00:13:02;11.10;99.90
51637;DHT22;37713;53.254;6.460;2023-08-31T00:15:28;11.10;99.90
51637;DHT22;37713;53.254;6.460;2023-08-31T00:18:01;11.10;99.90
51637;DHT22;37713;53.254;6.460;2023-08-31T00:20:30;11.10;99.90
51637;DHT22;37713;53.254;6.460;2023-08-31T00:22:56;11.10;99.90
51637;DHT22;37713;53.254;6.460;2023-08-31T00:25:22;11.10;99.90
51637;DHT22;37713;53.254;6.460;2023-08-31T00:27:48;11.10;99.90
51637;DHT22;37713;53.254;6.460;2023-08-31T00:30:14;11.20;99.90
51637;DHT22;37713;53.254;6.460;2023-08-31T00:32:41;11.10;99.90
51637;DHT22;37713;53.254;6.460;2023-08-31T00:35:09;11.10;99.90
51637;DHT22;37713;53.254;6.460;2023-08-31T00:37:34;11.20;99.90
51637;DHT22;37713;53.254;6.460;2023-08-31T00:40:01;11.20;99.90
51637;DHT22;37713;53.254;6.460;2023-08-31T00:42:27;11.20;99.90
51637;DHT22;37713;53.254;6.460;2023-08-31T00:44:55;11.10;99.90
51637;DHT22;37713;53.254;6.460;2023-08-31T00:47:21;11.10;99.90
51637;DHT22;37713;53.254;6.460;2023-08-31T00:49:47;11.10;99.90
51637;DHT22;37713;53.254;6.460;2023-08-31T00:52:13;11.10;99.90
51637;DHT22;37713;53.254;6.460;2023-08-31T00:54:40;11.20;99.90
51637;DHT22;37713;53.254;6.460;2023-08-31T00:57:08;11.20;99.90
51637;DHT22;37713;53.254;6.460;2023-08-31T00:59:34;11.20;99.90
51637;DHT22;37713;53.254;6.460;2023-08-31T01:05:02;11.20;99.90
51637;DHT22;37713;53.254;6.460;2023-08-31T01:07:53;11.10;99.90
51637;DHT22;37713;53.254;6.460;2023-08-31T01:13:21;11.10;99.90
51637;DHT22;37713;53.254;6.460;2023-08-31T01:15:53;11.20;99.90
51637;DHT22;37713;53.254;6.460;2023-08-31T01:18:22;11.10;99.90
51637;DHT22;37713;53.254;6.460;2023-08-31T01:21:17;11.10;99.90
51637;DHT22;37713;53.254;6.460;2023-08-31T01:23:52;11.10;99.90
51637;DHT22;37713;53.254;6.460;2023-08-31T01:26:22;11.10;99.90
51637;DHT22;37713;53.254;6.460;2023-08-31T01:28:48;11.00;99.90
51637;DHT22;37713;53.254;6.460;2023-08-31T01:31:15;11.00;99.90
51637;DHT22;37713;53.254;6.460;2023-08-31T01:33:42;11.00;99.90
51637;DHT22;37713;53.254;6.460;2023-08-31T01:36:22;11.00;99.90
51637;DHT22;37713;53.254;6.460;2023-08-31T01:38:53;10.90;99.90
51637;DHT22;37713;53.254;6.460;2023-08-31T01:41:22;11.00;99.90
51637;DHT22;37713;53.254;6.460;2023-08-31T01:43:51;10.90;99.90
51637;DHT22;37713;53.254;6.460;2023-08-31T01:46:18;10.90;99.90
51637;DHT22;37713;53.254;6.460;2023-08-31T01:48:45;10.80;99.90
51637;DHT22;37713;53.254;6.460;2023-08-31T01:51:11;10.80;99.90
51637;DHT22;37713;53.254;6.460;2023-08-31T01:53:37;10.80;99.90
51637;DHT22;37713;53.254;6.460;2023-08-31T01:56:03;10.80;99.90
51637;DHT22;37713;53.254;6.460;2023-08-31T01:58:30;10.70;99.90
51637;DHT22;37713;53.254;6.460;2023-08-31T02:00:56;10.80;99.90
51637;DHT22;37713;53.254;6.460;2023-08-31T02:03:22;10.70;99.90
51637;DHT22;37713;53.254;6.460;2023-08-31T02:05:48;10.70;99.90
51637;DHT22;37713;53.254;6.460;2023-08-31T02:08:13;10.70;99.90
51637;DHT22;37713;53.254;6.460;2023-08-31T02:10:43;10.60;99.90
51637;DHT22;37713;53.254;6.460;2023-08-31T02:13:10;10.60;99.90
51637;DHT22;37713;53.254;6.460;2023-08-31T02:15:39;10.60;99.90
51637;DHT22;37713;53.254;6.460;2023-08-31T02:18:07;10.60;99.90
51637;DHT22;37713;53.254;6.460;2023-08-31T02:20:33;10.60;99.90
51637;DHT22;37713;53.254;6.460;2023-08-31T02:23:00;10.60;99.90
51637;DHT22;37713;53.254;6.460;2023-08-31T02:25:26;10.60;99.90
51637;DHT22;37713;53.254;6.460;2023-08-31T02:27:54;10.60;99.90
51637;DHT22;37713;53.254;6.460;2023-08-31T02:30:21;10.60;99.90
51637;DHT22;37713;53.254;6.460;2023-08-31T02:32:46;10.60;99.90
51637;DHT22;37713;53.254;6.460;2023-08-31T02:35:13;10.60;99.90
51637;DHT22;37713;53.254;6.460;2023-08-31T02:37:38;10.60;99.90
51637;DHT22;37713;53.254;6.460;2023-08-31T02:40:05;10.70;99.90
51637;DHT22;37713;53.254;6.460;2023-08-31T02:42:32;10.70;99.90
51637;DHT22;37713;53.254;6.460;2023-08-31T02:44:57;10.70;99.90
51637;DHT22;37713;53.254;6.460;2023-08-31T02:47:23;10.70;99.90
51637;DHT22;37713;53.254;6.460;2023-08-31T02:49:49;10.70;99.90
51637;DHT22;37713;53.254;6.460;2023-08-31T02:52:15;10.70;99.90
51637;DHT22;37713;53.254;6.460;2023-08-31T02:54:41;10.80;99.90
51637;DHT22;37713;53.254;6.460;2023-08-31T02:57:07;10.80;99.90
51637;DHT22;37713;53.254;6.460;2023-08-31T02:59:33;10.80;99.90
51637;DHT22;37713;53.254;6.460;2023-08-31T03:02:04;10.80;99.90
51637;DHT22;37713;53.254;6.460;2023-08-31T03:04:30;10.80;99.90
51637;DHT22;37713;53.254;6.460;2023-08-31T03:06:56;10.90;99.90
51637;DHT22;37713;53.254;6.460;2023-08-31T03:09:22;10.90;99.90
51637;DHT22;37713;53.254;6.460;2023-08-31T03:11:48;10.80;99.90
51637;DHT22;37713;53.254;6.460;2023-08-31T03:14:14;10.80;99.90
51637;DHT22;37713;53.254;6.460;2023-08-31T03:16:39;10.80;99.90
51637;DHT22;37713;53.254;6.460;2023-08-31T03:19:05;10.80;99.90
51637;DHT22;37713;53.254;6.460;2023-08-31T03:21:31;10.90;99.90
51637;DHT22;37713;53.254;6.460;2023-08-31T03:23:57;10.80;99.90
51637;DHT22;37713;53.254;6.460;2023-08-31T03:26:23;10.90;99.90
51637;DHT22;37713;53.254;6.460;2023-08-31T03:28:49;10.80;99.90
51637;DHT22;37713;53.254;6.460;2023-08-31T03:31:14;10.90;99.90
51637;DHT22;37713;53.254;6.460;2023-08-31T03:33:40;11.00;99.90
51637;DHT22;37713;53.254;6.460;2023-08-31T03:36:07;10.90;99.90
51637;DHT22;37713;53.254;6.460;2023-08-31T03:38:33;10.90;99.90
51637;DHT22;37713;53.254;6.460;2023-08-31T03:41:03;10.90;99.90
51637;DHT22;37713;53.254;6.460;2023-08-31T03:43:29;10.90;99.90
51637;DHT22;37713;53.254;6.460;2023-08-31T03:45:56;10.90;99.90
51637;DHT22;37713;53.254;6.460;2023-08-31T03:48:25;10.80;99.90
51637;DHT22;37713;53.254;6.460;2023-08-31T03:50:52;10.80;99.90
51637;DHT22;37713;53.254;6.460;2023-08-31T03:53:18;10.80;99.90
51637;DHT22;37713;53.254;6.460;2023-08-31T03:55:44;10.80;99.90
51637;DHT22;37713;53.254;6.460;2023-08-31T03:58:10;10.80;99.90
51637;DHT22;37713;53.254;6.460;2023-08-31T04:00:38;10.80;99.90
51637;DHT22;37713;53.254;6.460;2023-08-31T04:03:04;10.70;99.90
51637;DHT22;37713;53.254;6.460;2023-08-31T04:05:34;10.80;99.90
51637;DHT22;37713;53.254;6.460;2023-08-31T04:08:01;10.70;99.90
51637;DHT22;37713;53.254;6.460;2023-08-31T04:10:27;10.70;99.90
51637;DHT22;37713;53.254;6.460;2023-08-31T04:12:55;10.70;99.90
51637;DHT22;37713;53.254;6.460;2023-08-31T04:15:21;10.70;99.90
51637;DHT22;37713;53.254;6.460;2023-08-31T04:17:47;10.60;99.90
51637;DHT22;37713;53.254;6.460;2023-08-31T04:20:15;10.60;99.90
51637;DHT22;37713;53.254;6.460;2023-08-31T04:22:41;10.50;99.90
51637;DHT22;37713;53.254;6.460;2023-08-31T04:25:07;10.60;99.90
51637;DHT22;37713;53.254;6.460;2023-08-31T04:27:33;10.50;99.90
51637;DHT22;37713;53.254;6.460;2023-08-31T04:30:00;10.50;99.90
51637;DHT22;37713;53.254;6.460;2023-08-31T04:32:26;10.50;99.90
51637;DHT22;37713;53.254;6.460;2023-08-31T04:34:53;10.50;99.90
51637;DHT22;37713;53.254;6.460;2023-08-31T04:37:19;10.40;99.90
51637;DHT22;37713;53.254;6.460;2023-08-31T04:39:46;10.50;99.90
51637;DHT22;37713;53.254;6.460;2023-08-31T04:42:12;10.50;99.90
51637;DHT22;37713;53.254;6.460;2023-08-31T04:44:38;10.40;99.90
51637;DHT22;37713;53.254;6.460;2023-08-31T04:47:04;10.40;99.90
51637;DHT22;37713;53.254;6.460;2023-08-31T04:49:29;10.40;99.90
51637;DHT22;37713;53.254;6.460;2023-08-31T04:51:56;10.40;99.90
51637;DHT22;37713;53.254;6.460;2023-08-31T04:54:22;10.40;99.90
51637;DHT22;37713;53.254;6.460;2023-08-31T04:56:48;10.40;99.90
51637;DHT22;37713;53.254;6.460;2023-08-31T04:59:13;10.40;99.90
51637;DHT22;37713;53.254;6.460;2023-08-31T05:01:39;10.40;99.90
51637;DHT22;37713;53.254;6.460;2023-08-31T05:04:05;10.40;99.90
51637;DHT22;37713;53.254;6.460;2023-08-31T05:06:31;10.30;99.90
51637;DHT22;37713;53.254;6.460;2023-08-31T05:08:57;10.40;99.90
51637;DHT22;37713;53.254;6.460;2023-08-31T05:11:23;10.30;99.90
51637;DHT22;37713;53.254;6.460;2023-08-31T05:13:49;10.30;99.90
51637;DHT22;37713;53.254;6.460;2023-08-31T05:16:16;10.30;99.90
51637;DHT22;37713;53.254;6.460;2023-08-31T05:18:41;10.30;99.90
51637;DHT22;37713;53.254;6.460;2023-08-31T05:21:07;10.40;99.90
51637;DHT22;37713;53.254;6.460;2023-08-31T05:23:33;10.40;99.90
51637;DHT22;37713;53.254;6.460;2023-08-31T05:25:59;10.30;99.90
51637;DHT22;37713;53.254;6.460;2023-08-31T05:28:27;10.30;99.90
51637;DHT22;37713;53.254;6.460;2023-08-31T05:30:55;10.40;99.90
51637;DHT22;37713;53.254;6.460;2023-08-31T05:33:21;10.40;99.90
51637;DHT22;37713;53.254;6.460;2023-08-31T05:35:54;10.40;99.90
51637;DHT22;37713;53.254;6.460;2023-08-31T05:38:20;10.40;99.90
51637;DHT22;37713;53.254;6.460;2023-08-31T05:40:46;10.40;99.90
51637;DHT22;37713;53.254;6.460;2023-08-31T05:43:13;10.40;99.90
51637;DHT22;37713;53.254;6.460;2023-08-31T05:45:39;10.50;99.90
51637;DHT22;37713;53.254;6.460;2023-08-31T05:48:05;10.50;99.90
51637;DHT22;37713;53.254;6.460;2023-08-31T05:50:31;10.60;99.90
51637;DHT22;37713;53.254;6.460;2023-08-31T05:52:58;10.60;99.90
51637;DHT22;37713;53.254;6.460;2023-08-31T05:55:23;10.70;99.90
51637;DHT22;37713;53.254;6.460;2023-08-31T05:57:49;10.70;99.90
51637;DHT22;37713;53.254;6.460;2023-08-31T06:00:17;10.80;99.90
51637;DHT22;37713;53.254;6.460;2023-08-31T06:02:43;10.90;99.90
51637;DHT22;37713;53.254;6.460;2023-08-31T06:05:10;11.00;99.90
51637;DHT22;37713;53.254;6.460;2023-08-31T06:07:42;11.20;99.90
51637;DHT22;37713;53.254;6.460;2023-08-31T06:10:08;11.20;99.90
51637;DHT22;37713;53.254;6.460;2023-08-31T06:12:34;11.30;99.90
51637;DHT22;37713;53.254;6.460;2023-08-31T06:15:00;11.40;99.90
51637;DHT22;37713;53.254;6.460;2023-08-31T06:17:26;11.40;99.90
51637;DHT22;37713;53.254;6.460;2023-08-31T06:19:52;11.50;99.90
51637;DHT22;37713;53.254;6.460;2023-08-31T06:22:17;11.60;99.90
51637;DHT22;37713;53.254;6.460;2023-08-31T06:24:44;11.70;99.90
51637;DHT22;37713;53.254;6.460;2023-08-31T06:27:11;11.70;99.90
51637;DHT22;37713;53.254;6.460;2023-08-31T06:29:38;11.80;99.90
51637;DHT22;37713;53.254;6.460;2023-08-31T06:32:04;11.90;99.90
51637;DHT22;37713;53.254;6.460;2023-08-31T06:34:30;12.10;99.90
51637;DHT22;37713;53.254;6.460;2023-08-31T06:36:56;12.20;99.90
51637;DHT22;37713;53.254;6.460;2023-08-31T06:39:24;12.40;99.90
51637;DHT22;37713;53.254;6.460;2023-08-31T06:41:50;12.50;99.90
51637;DHT22;37713;53.254;6.460;2023-08-31T06:44:16;12.60;99.90
51637;DHT22;37713;53.254;6.460;2023-08-31T06:46:42;12.70;99.90
51637;DHT22;37713;53.254;6.460;2023-08-31T06:49:08;12.80;99.90
51637;DHT22;37713;53.254;6.460;2023-08-31T06:51:35;12.90;99.90
51637;DHT22;37713;53.254;6.460;2023-08-31T06:54:02;13.00;99.90
51637;DHT22;37713;53.254;6.460;2023-08-31T06:56:35;13.10;99.90
51637;DHT22;37713;53.254;6.460;2023-08-31T06:59:02;13.20;99.90
51637;DHT22;37713;53.254;6.460;2023-08-31T07:01:28;13.90;99.90
51637;DHT22;37713;53.254;6.460;2023-08-31T07:03:54;14.90;99.90
51637;DHT22;37713;53.254;6.460;2023-08-31T07:06:20;15.90;99.90
51637;DHT22;37713;53.254;6.460;2023-08-31T07:08:46;16.80;99.90
51637;DHT22;37713;53.254;6.460;2023-08-31T07:11:14;17.40;99.90
51637;DHT22;37713;53.254;6.460;2023-08-31T07:13:40;17.30;99.90
51637;DHT22;37713;53.254;6.460;2023-08-31T07:16:07;17.30;99.90
51637;DHT22;37713;53.254;6.460;2023-08-31T07:18:33;17.00;99.90
51637;DHT22;37713;53.254;6.460;2023-08-31T07:20:59;16.80;99.90
51637;DHT22;37713;53.254;6.460;2023-08-31T07:23:25;16.50;99.90
51637;DHT22;37713;53.254;6.460;2023-08-31T07:25:50;16.30;99.90
51637;DHT22;37713;53.254;6.460;2023-08-31T07:28:16;16.10;99.90
51637;DHT22;37713;53.254;6.460;2023-08-31T07:30:43;15.90;99.90
51637;DHT22;37713;53.254;6.460;2023-08-31T07:33:09;15.80;99.90
51637;DHT22;37713;53.254;6.460;2023-08-31T07:35:35;15.70;99.90
51637;DHT22;37713;53.254;6.460;2023-08-31T07:38:01;15.70;99.90
51637;DHT22;37713;53.254;6.460;2023-08-31T07:40:27;15.80;99.90
51637;DHT22;37713;53.254;6.460;2023-08-31T07:42:53;15.90;99.90
51637;DHT22;37713;53.254;6.460;2023-08-31T07:45:18;16.00;99.90
51637;DHT22;37713;53.254;6.460;2023-08-31T07:47:44;15.90;99.90
51637;DHT22;37713;53.254;6.460;2023-08-31T07:50:10;15.90;99.90
51637;DHT22;37713;53.254;6.460;2023-08-31T07:52:36;15.70;99.90
51637;DHT22;37713;53.254;6.460;2023-08-31T07:55:03;15.80;99.90
51637;DHT22;37713;53.254;6.460;2023-08-31T07:57:29;15.80;99.90
51637;DHT22;37713;53.254;6.460;2023-08-31T07:59:55;15.90;99.90
51637;DHT22;37713;53.254;6.460;2023-08-31T08:02:21;15.90;99.90
51637;DHT22;37713;53.254;6.460;2023-08-31T08:04:47;15.90;99.90
51637;DHT22;37713;53.254;6.460;2023-08-31T08:07:13;15.90;99.90
51637;DHT22;37713;53.254;6.460;2023-08-31T08:09:39;16.00;99.90
51637;DHT22;37713;53.254;6.460;2023-08-31T08:12:05;16.10;99.90
51637;DHT22;37713;53.254;6.460;2023-08-31T08:14:32;16.30;99.90
51637;DHT22;37713;53.254;6.460;2023-08-31T08:16:58;16.30;99.90
51637;DHT22;37713;53.254;6.460;2023-08-31T08:19:24;16.30;99.90
51637;DHT22;37713;53.254;6.460;2023-08-31T08:21:50;16.30;99.90
51637;DHT22;37713;53.254;6.460;2023-08-31T08:24:17;16.50;99.90
51637;DHT22;37713;53.254;6.460;2023-08-31T08:26:43;16.80;99.90
51637;DHT22;37713;53.254;6.460;2023-08-31T08:29:09;16.90;99.90
51637;DHT22;37713;53.254;6.460;2023-08-31T08:31:34;17.00;99.90
51637;DHT22;37713;53.254;6.460;2023-08-31T08:34:00;16.90;99.90
51637;DHT22;37713;53.254;6.460;2023-08-31T08:36:27;16.90;99.90
51637;DHT22;37713;53.254;6.460;2023-08-31T08:38:52;17.00;99.90
51637;DHT22;37713;53.254;6.460;2023-08-31T08:41:25;17.10;99.90
51637;DHT22;37713;53.254;6.460;2023-08-31T08:43:55;17.20;99.90
51637;DHT22;37713;53.254;6.460;2023-08-31T08:46:22;17.20;99.90
51637;DHT22;37713;53.254;6.460;2023-08-31T08:48:49;17.20;99.90
51637;DHT22;37713;53.254;6.460;2023-08-31T08:51:16;17.10;99.90
51637;DHT22;37713;53.254;6.460;2023-08-31T08:53:43;17.10;99.90
51637;DHT22;37713;53.254;6.460;2023-08-31T08:56:09;17.10;99.90
51637;DHT22;37713;53.254;6.460;2023-08-31T08:58:35;17.10;99.90
51637;DHT22;37713;53.254;6.460;2023-08-31T09:01:02;16.90;99.90
51637;DHT22;37713;53.254;6.460;2023-08-31T09:03:29;16.60;99.90
51637;DHT22;37713;53.254;6.460;2023-08-31T09:05:55;16.50;99.90
51637;DHT22;37713;53.254;6.460;2023-08-31T09:08:27;16.40;99.90
51637;DHT22;37713;53.254;6.460;2023-08-31T09:10:56;16.40;99.90
51637;DHT22;37713;53.254;6.460;2023-08-31T09:13:29;16.40;99.90
51637;DHT22;37713;53.254;6.460;2023-08-31T09:15:56;16.40;99.90
51637;DHT22;37713;53.254;6.460;2023-08-31T09:18:27;16.50;99.90
51637;DHT22;37713;53.254;6.460;2023-08-31T09:20:54;16.50;99.90
51637;DHT22;37713;53.254;6.460;2023-08-31T09:23:22;16.60;99.90
51637;DHT22;37713;53.254;6.460;2023-08-31T09:25:50;16.70;99.90
51637;DHT22;37713;53.254;6.460;2023-08-31T09:28:24;16.90;99.90
51637;DHT22;37713;53.254;6.460;2023-08-31T09:30:53;17.00;99.90
51637;DHT22;37713;53.254;6.460;2023-08-31T09:33:28;17.30;99.90
51637;DHT22;37713;53.254;6.460;2023-08-31T09:35:58;17.50;99.90
51637;DHT22;37713;53.254;6.460;2023-08-31T09:38:25;17.60;99.90
51637;DHT22;37713;53.254;6.460;2023-08-31T09:40:51;17.60;99.90
51637;DHT22;37713;53.254;6.460;2023-08-31T09:43:22;17.60;99.90
51637;DHT22;37713;53.254;6.460;2023-08-31T09:45:50;17.60;99.90
51637;DHT22;37713;53.254;6.460;2023-08-31T09:48:16;17.60;99.90
51637;DHT22;37713;53.254;6.460;2023-08-31T09:50:46;17.80;99.90
51637;DHT22;37713;53.254;6.460;2023-08-31T09:53:16;17.90;99.90
51637;DHT22;37713;53.254;6.460;2023-08-31T09:55:47;18.00;99.90
51637;DHT22;37713;53.254;6.460;2023-08-31T09:58:18;18.10;99.90
51637;DHT22;37713;53.254;6.460;2023-08-31T10:00:46;18.10;99.90
51637;DHT22;37713;53.254;6.460;2023-08-31T10:03:12;18.20;99.90
51637;DHT22;37713;53.254;6.460;2023-08-31T10:05:44;18.10;99.90
51637;DHT22;37713;53.254;6.460;2023-08-31T10:08:14;18.10;99.90
51637;DHT22;37713;53.254;6.460;2023-08-31T10:10:41;18.10;99.90
51637;DHT22;37713;53.254;6.460;2023-08-31T10:13:07;18.10;99.90
51637;DHT22;37713;53.254;6.460;2023-08-31T10:15:35;18.10;99.90
51637;DHT22;37713;53.254;6.460;2023-08-31T10:18:03;18.10;99.90
51637;DHT22;37713;53.254;6.460;2023-08-31T10:20:29;18.00;99.90
51637;DHT22;37713;53.254;6.460;2023-08-31T10:23:03;17.90;99.90
51637;DHT22;37713;53.254;6.460;2023-08-31T10:28:28;17.90;99.90
51637;DHT22;37713;53.254;6.460;2023-08-31T10:31:02;18.00;99.90
51637;DHT22;37713;53.254;6.460;2023-08-31T10:33:40;18.20;99.90
51637;DHT22;37713;53.254;6.460;2023-08-31T10:36:18;18.30;99.90
51637;DHT22;37713;53.254;6.460;2023-08-31T10:41:24;18.20;99.90
51637;DHT22;37713;53.254;6.460;2023-08-31T10:43:57;18.00;99.90
51637;DHT22;37713;53.254;6.460;2023-08-31T10:46:36;17.90;99.90
51637;DHT22;37713;53.254;6.460;2023-08-31T10:51:44;17.80;99.90
51637;DHT22;37713;53.254;6.460;2023-08-31T10:54:32;17.60;99.90
51637;DHT22;37713;53.254;6.460;2023-08-31T10:59:41;17.40;99.90
51637;DHT22;37713;53.254;6.460;2023-08-31T11:02:07;17.50;99.90
51637;DHT22;37713;53.254;6.460;2023-08-31T11:04:53;17.50;99.90
51637;DHT22;37713;53.254;6.460;2023-08-31T11:07:23;17.60;99.90
51637;DHT22;37713;53.254;6.460;2023-08-31T11:09:49;17.70;99.90
51637;DHT22;37713;53.254;6.460;2023-08-31T11:12:15;17.80;99.90
51637;DHT22;37713;53.254;6.460;2023-08-31T11:14:41;18.00;99.90
51637;DHT22;37713;53.254;6.460;2023-08-31T11:17:07;18.10;99.90
51637;DHT22;37713;53.254;6.460;2023-08-31T11:19:35;18.30;99.90
51637;DHT22;37713;53.254;6.460;2023-08-31T11:22:01;18.50;99.90
51637;DHT22;37713;53.254;6.460;2023-08-31T11:24:29;18.70;99.90
51637;DHT22;37713;53.254;6.460;2023-08-31T11:26:55;19.00;99.90
51637;DHT22;37713;53.254;6.460;2023-08-31T11:29:21;19.30;99.90
51637;DHT22;37713;53.254;6.460;2023-08-31T11:31:47;19.40;99.90
51637;DHT22;37713;53.254;6.460;2023-08-31T11:34:16;19.50;99.90
51637;DHT22;37713;53.254;6.460;2023-08-31T11:36:42;19.30;99.90
51637;DHT22;37713;53.254;6.460;2023-08-31T11:39:09;18.80;99.90
51637;DHT22;37713;53.254;6.460;2023-08-31T11:41:36;18.50;99.90
51637;DHT22;37713;53.254;6.460;2023-08-31T11:44:09;18.00;99.90
51637;DHT22;37713;53.254;6.460;2023-08-31T11:46:37;17.60;99.90
51637;DHT22;37713;53.254;6.460;2023-08-31T11:49:04;17.20;99.90
51637;DHT22;37713;53.254;6.460;2023-08-31T11:51:32;17.10;99.90
51637;DHT22;37713;53.254;6.460;2023-08-31T11:54:01;17.00;99.90
51637;DHT22;37713;53.254;6.460;2023-08-31T11:56:44;17.30;99.90
51637;DHT22;37713;53.254;6.460;2023-08-31T11:59:12;17.50;99.90
51637;DHT22;37713;53.254;6.460;2023-08-31T12:01:45;17.60;99.90
51637;DHT22;37713;53.254;6.460;2023-08-31T12:04:16;17.60;99.90
51637;DHT22;37713;53.254;6.460;2023-08-31T12:06:46;17.10;99.90
51637;DHT22;37713;53.254;6.460;2023-08-31T12:09:12;16.70;99.90
51637;DHT22;37713;53.254;6.460;2023-08-31T12:11:38;16.60;99.90
51637;DHT22;37713;53.254;6.460;2023-08-31T12:14:21;16.50;99.90
51637;DHT22;37713;53.254;6.460;2023-08-31T12:16:47;16.50;99.90
51637;DHT22;37713;53.254;6.460;2023-08-31T12:19:13;16.50;99.90
51637;DHT22;37713;53.254;6.460;2023-08-31T12:21:39;16.50;99.90
51637;DHT22;37713;53.254;6.460;2023-08-31T12:24:06;16.50;99.90
51637;DHT22;37713;53.254;6.460;2023-08-31T12:26:31;16.50;99.90
51637;DHT22;37713;53.254;6.460;2023-08-31T12:28:57;16.50;99.90
51637;DHT22;37713;53.254;6.460;2023-08-31T12:31:24;16.50;99.90
51637;DHT22;37713;53.254;6.460;2023-08-31T12:33:50;16.60;99.90
51637;DHT22;37713;53.254;6.460;2023-08-31T12:36:16;16.90;99.90
51637;DHT22;37713;53.254;6.460;2023-08-31T12:38:41;17.00;99.90
51637;DHT22;37713;53.254;6.460;2023-08-31T12:41:07;17.00;99.90
51637;DHT22;37713;53.254;6.460;2023-08-31T12:43:34;16.90;99.90
51637;DHT22;37713;53.254;6.460;2023-08-31T12:46:00;16.90;99.90
51637;DHT22;37713;53.254;6.460;2023-08-31T12:48:26;17.00;99.90
51637;DHT22;37713;53.254;6.460;2023-08-31T12:50:52;17.10;99.90
51637;DHT22;37713;53.254;6.460;2023-08-31T12:53:22;17.10;99.90
51637;DHT22;37713;53.254;6.460;2023-08-31T12:55:48;17.00;99.90
51637;DHT22;37713;53.254;6.460;2023-08-31T12:58:15;17.10;99.90
51637;DHT22;37713;53.254;6.460;2023-08-31T13:00:41;17.10;99.90
51637;DHT22;37713;53.254;6.460;2023-08-31T13:03:09;17.00;99.90
51637;DHT22;37713;53.254;6.460;2023-08-31T13:05:39;17.00;99.90
51637;DHT22;37713;53.254;6.460;2023-08-31T13:08:06;17.00;99.90
51637;DHT22;37713;53.254;6.460;2023-08-31T13:10:32;16.90;99.90
51637;DHT22;37713;53.254;6.460;2023-08-31T13:12:57;16.90;99.90
51637;DHT22;37713;53.254;6.460;2023-08-31T13:15:23;17.00;99.90
51637;DHT22;37713;53.254;6.460;2023-08-31T13:17:49;17.10;99.90
51637;DHT22;37713;53.254;6.460;2023-08-31T13:20:15;17.30;99.90
51637;DHT22;37713;53.254;6.460;2023-08-31T13:22:41;17.30;99.90
51637;DHT22;37713;53.254;6.460;2023-08-31T13:25:07;17.40;99.90
51637;DHT22;37713;53.254;6.460;2023-08-31T13:27:32;17.30;99.90
51637;DHT22;37713;53.254;6.460;2023-08-31T13:30:01;17.20;99.90
51637;DHT22;37713;53.254;6.460;2023-08-31T13:32:32;17.10;99.90
51637;DHT22;37713;53.254;6.460;2023-08-31T13:34:57;17.10;99.90
51637;DHT22;37713;53.254;6.460;2023-08-31T13:37:23;17.30;99.90
51637;DHT22;37713;53.254;6.460;2023-08-31T13:39:50;17.60;99.90
51637;DHT22;37713;53.254;6.460;2023-08-31T13:42:20;17.90;99.90
51637;DHT22;37713;53.254;6.460;2023-08-31T13:44:46;18.20;99.90
51637;DHT22;37713;53.254;6.460;2023-08-31T13:47:11;18.40;99.90
51637;DHT22;37713;53.254;6.460;2023-08-31T13:49:37;18.60;99.90
51637;DHT22;37713;53.254;6.460;2023-08-31T13:52:03;18.60;99.90
51637;DHT22;37713;53.254;6.460;2023-08-31T13:54:33;18.50;99.90
51637;DHT22;37713;53.254;6.460;2023-08-31T13:56:58;18.50;99.90
51637;DHT22;37713;53.254;6.460;2023-08-31T13:59:24;18.30;99.90
51637;DHT22;37713;53.254;6.460;2023-08-31T14:01:53;18.30;99.90
51637;DHT22;37713;53.254;6.460;2023-08-31T14:04:19;18.30;99.90
51637;DHT22;37713;53.254;6.460;2023-08-31T14:06:45;18.30;99.90
51637;DHT22;37713;53.254;6.460;2023-08-31T14:09:11;18.20;99.90
51637;DHT22;37713;53.254;6.460;2023-08-31T14:11:37;18.00;99.90
51637;DHT22;37713;53.254;6.460;2023-08-31T14:14:04;17.90;99.90
51637;DHT22;37713;53.254;6.460;2023-08-31T14:16:40;17.80;99.90
51637;DHT22;37713;53.254;6.460;2023-08-31T14:19:06;17.70;99.90
51637;DHT22;37713;53.254;6.460;2023-08-31T14:21:32;17.70;99.90
51637;DHT22;37713;53.254;6.460;2023-08-31T14:23:57;17.70;99.90
51637;DHT22;37713;53.254;6.460;2023-08-31T14:26:24;17.80;99.90
51637;DHT22;37713;53.254;6.460;2023-08-31T14:28:51;17.90;99.90
51637;DHT22;37713;53.254;6.460;2023-08-31T14:31:17;18.00;99.90
51637;DHT22;37713;53.254;6.460;2023-08-31T14:33:43;18.20;99.90
51637;DHT22;37713;53.254;6.460;2023-08-31T14:36:09;18.20;99.90
51637;DHT22;37713;53.254;6.460;2023-08-31T14:38:35;18.20;99.90
51637;DHT22;37713;53.254;6.460;2023-08-31T14:41:00;18.20;99.90
51637;DHT22;37713;53.254;6.460;2023-08-31T14:43:27;18.10;99.90
51637;DHT22;37713;53.254;6.460;2023-08-31T14:45:52;18.10;99.90
51637;DHT22;37713;53.254;6.460;2023-08-31T14:48:18;18.20;99.90
51637;DHT22;37713;53.254;6.460;2023-08-31T14:50:44;18.10;99.90
51637;DHT22;37713;53.254;6.460;2023-08-31T14:53:10;18.00;99.90
51637;DHT22;37713;53.254;6.460;2023-08-31T14:55:37;18.00;99.90
51637;DHT22;37713;53.254;6.460;2023-08-31T14:58:04;18.00;99.90
51637;DHT22;37713;53.254;6.460;2023-08-31T15:00:31;18.00;99.90
51637;DHT22;37713;53.254;6.460;2023-08-31T15:02:57;18.10;99.90
51637;DHT22;37713;53.254;6.460;2023-08-31T15:05:23;18.30;99.90
51637;DHT22;37713;53.254;6.460;2023-08-31T15:07:51;18.40;99.90
51637;DHT22;37713;53.254;6.460;2023-08-31T15:10:17;18.50;99.90
51637;DHT22;37713;53.254;6.460;2023-08-31T15:12:43;18.60;99.90
51637;DHT22;37713;53.254;6.460;2023-08-31T15:15:10;18.80;99.90
51637;DHT22;37713;53.254;6.460;2023-08-31T15:17:36;19.00;99.90
51637;DHT22;37713;53.254;6.460;2023-08-31T15:20:01;19.10;99.90
51637;DHT22;37713;53.254;6.460;2023-08-31T15:22:29;19.10;99.90
51637;DHT22;37713;53.254;6.460;2023-08-31T15:24:54;19.10;99.90
51637;DHT22;37713;53.254;6.460;2023-08-31T15:27:20;19.00;99.90
51637;DHT22;37713;53.254;6.460;2023-08-31T15:29:46;18.90;99.90
51637;DHT22;37713;53.254;6.460;2023-08-31T15:32:12;18.70;99.90
51637;DHT22;37713;53.254;6.460;2023-08-31T15:34:38;18.70;99.90
51637;DHT22;37713;53.254;6.460;2023-08-31T15:37:03;18.80;99.90
51637;DHT22;37713;53.254;6.460;2023-08-31T15:39:29;18.80;99.90
51637;DHT22;37713;53.254;6.460;2023-08-31T15:41:56;18.80;99.90
51637;DHT22;37713;53.254;6.460;2023-08-31T15:44:21;18.80;99.90
51637;DHT22;37713;53.254;6.460;2023-08-31T15:46:47;18.90;99.90